createdAt,value
2023-01-12T00:01:36.846Z,7.60
2023-01-12T00:04:03.633Z,6.10
2023-01-12T00:06:32.288Z,6.10
2023-01-12T00:09:02.366Z,6.72
2023-01-12T00:11:29.380Z,6.43
2023-01-12T00:13:56.097Z,6.10
2023-01-12T00:16:35.982Z,6.78
2023-01-12T00:19:12.915Z,7.00
2023-01-12T00:22:06.859Z,6.55
2023-01-12T00:24:39.123Z,6.05
2023-01-12T00:29:36.564Z,7.15
2023-01-12T00:32:04.819Z,7.57
2023-01-12T00:34:31.629Z,6.40
2023-01-12T00:37:00.308Z,7.20
2023-01-12T00:39:26.999Z,6.85
2023-01-12T00:42:12.082Z,7.13
2023-01-12T00:44:57.456Z,7.38
2023-01-12T00:47:24.062Z,7.25
2023-01-12T00:49:50.783Z,7.18
2023-01-12T00:52:29.903Z,6.55
2023-01-12T00:54:57.493Z,6.93
2023-01-12T00:57:24.258Z,7.30
2023-01-12T00:59:54.949Z,7.25
2023-01-12T01:02:22.079Z,8.30
2023-01-12T01:04:49.532Z,8.02
2023-01-12T01:07:16.193Z,8.40
2023-01-12T01:09:44.269Z,7.50
2023-01-12T01:12:10.999Z,7.43
2023-01-12T01:14:37.626Z,7.53
2023-01-12T01:17:04.204Z,7.13
2023-01-12T01:19:30.818Z,6.40
2023-01-12T01:21:57.394Z,6.80
2023-01-12T01:24:24.171Z,7.15
2023-01-12T01:26:51.566Z,8.02
2023-01-12T01:29:18.668Z,7.63
2023-01-12T01:31:47.770Z,7.20
2023-01-12T01:34:14.825Z,7.05
2023-01-12T01:36:41.893Z,6.05
2023-01-12T01:39:08.861Z,7.07
2023-01-12T01:41:35.534Z,7.45
2023-01-12T01:44:26.745Z,7.28
2023-01-12T01:47:03.441Z,7.05
2023-01-12T01:49:32.451Z,7.07
2023-01-12T01:52:13.720Z,7.85
2023-01-12T01:54:46.496Z,7.53
2023-01-12T01:57:14.872Z,7.10
2023-01-12T01:59:48.936Z,7.65
2023-01-12T02:02:16.543Z,7.10
2023-01-12T02:04:43.464Z,7.65
2023-01-12T02:07:10.959Z,7.10
2023-01-12T02:09:38.534Z,7.93
2023-01-12T02:12:41.083Z,7.47
2023-01-12T02:15:26.703Z,6.93
2023-01-12T02:17:59.080Z,7.70
2023-01-12T02:20:47.223Z,7.60
2023-01-12T02:23:16.911Z,7.20
2023-01-12T02:26:01.385Z,6.63
2023-01-12T02:28:49.934Z,6.28
2023-01-12T02:31:51.250Z,6.85
2023-01-12T02:34:36.502Z,6.65
2023-01-12T02:37:09.336Z,7.70
2023-01-12T02:39:50.768Z,6.70
2023-01-12T02:42:41.343Z,6.88
2023-01-12T02:45:23.461Z,6.28
2023-01-12T02:47:56.029Z,5.88
2023-01-12T02:50:40.005Z,6.15
2023-01-12T02:53:12.716Z,6.38
2023-01-12T02:55:41.237Z,5.93
2023-01-12T02:58:12.711Z,5.97
2023-01-12T03:00:43.009Z,5.70
2023-01-12T03:03:09.653Z,5.72
2023-01-12T03:05:40.949Z,6.68
2023-01-12T03:08:14.072Z,6.32
2023-01-12T03:11:06.802Z,5.85
2023-01-12T03:13:37.392Z,6.82
2023-01-12T03:16:06.469Z,7.75
2023-01-12T03:18:38.723Z,8.13
2023-01-12T03:21:20.708Z,7.63
2023-01-12T03:23:54.248Z,8.98
2023-01-12T03:26:27.855Z,8.73
2023-01-12T03:29:03.954Z,7.90
2023-01-12T03:31:31.097Z,8.57
2023-01-12T03:33:58.262Z,10.10
2023-01-12T03:36:35.528Z,9.45
2023-01-12T03:39:20.287Z,8.32
2023-01-12T03:41:57.554Z,10.40
2023-01-12T03:44:40.226Z,10.77
2023-01-12T03:47:20.830Z,8.82
2023-01-12T03:49:52.824Z,9.73
2023-01-12T03:52:22.059Z,8.55
2023-01-12T03:54:50.083Z,8.38
2023-01-12T03:57:17.623Z,8.77
2023-01-12T03:59:44.315Z,9.82
2023-01-12T04:02:10.961Z,8.73
2023-01-12T04:04:37.670Z,7.70
2023-01-12T04:07:04.425Z,8.75
2023-01-12T04:09:31.250Z,8.38
2023-01-12T04:12:13.057Z,8.60
2023-01-12T04:14:40.554Z,9.02
2023-01-12T04:17:09.476Z,8.75
2023-01-12T04:19:36.094Z,8.05
2023-01-12T04:22:20.999Z,7.53
2023-01-12T04:24:48.695Z,6.72
2023-01-12T04:27:16.310Z,6.05
2023-01-12T04:29:43.163Z,7.43
2023-01-12T04:32:10.216Z,6.47
2023-01-12T04:34:37.012Z,7.15
2023-01-12T04:37:03.952Z,6.88
2023-01-12T04:39:30.499Z,6.82
2023-01-12T04:41:57.284Z,7.25
2023-01-12T04:44:23.903Z,6.72
2023-01-12T04:46:51.467Z,7.22
2023-01-12T04:49:18.173Z,8.52
2023-01-12T04:51:45.259Z,7.40
2023-01-12T04:54:12.227Z,7.57
2023-01-12T04:56:39.099Z,8.10
2023-01-12T04:59:07.377Z,9.43
2023-01-12T05:01:34.238Z,7.90
2023-01-12T05:04:01.138Z,7.90
2023-01-12T05:06:28.920Z,8.15
2023-01-12T05:09:14.327Z,8.55
2023-01-12T05:11:40.963Z,6.57
2023-01-12T05:14:07.703Z,8.65
2023-01-12T05:16:34.390Z,16.77
2023-01-12T05:19:01.078Z,8.68
2023-01-12T05:21:27.659Z,9.52
2023-01-12T05:23:54.377Z,8.40
2023-01-12T05:26:21.234Z,8.65
2023-01-12T05:28:49.804Z,8.98
2023-01-12T05:31:17.159Z,9.07
2023-01-12T05:33:43.921Z,8.23
2023-01-12T05:36:13.867Z,9.38
2023-01-12T05:38:41.156Z,9.35
2023-01-12T05:41:10.303Z,9.30
2023-01-12T05:43:52.205Z,8.30
2023-01-12T05:46:30.703Z,7.97
2023-01-12T05:48:58.110Z,9.32
2023-01-12T05:51:27.288Z,8.05
2023-01-12T05:53:54.987Z,8.25
2023-01-12T05:56:25.863Z,8.38
2023-01-12T05:58:58.646Z,9.00
2023-01-12T06:01:25.919Z,10.10
2023-01-12T06:03:54.217Z,8.30
2023-01-12T06:06:22.526Z,9.50
2023-01-12T06:08:52.145Z,9.25
2023-01-12T06:11:38.774Z,10.38
2023-01-12T06:14:05.849Z,8.85
2023-01-12T06:16:32.511Z,10.70
2023-01-12T06:18:59.089Z,9.05
2023-01-12T06:21:25.825Z,10.93
2023-01-12T06:23:52.559Z,10.27
2023-01-12T06:26:19.246Z,12.10
2023-01-12T06:28:45.970Z,10.60
2023-01-12T06:31:14.331Z,9.88
2023-01-12T06:33:41.479Z,9.82
2023-01-12T06:36:09.171Z,10.85
2023-01-12T06:38:37.323Z,10.73
2023-01-12T06:41:29.276Z,10.85
2023-01-12T06:43:56.406Z,9.95
2023-01-12T06:46:23.106Z,9.30
2023-01-12T06:48:49.885Z,9.00
2023-01-12T06:51:16.524Z,9.30
2023-01-12T06:53:43.189Z,8.73
2023-01-12T06:56:09.790Z,9.93
2023-01-12T06:58:38.290Z,9.35
2023-01-12T07:01:05.101Z,8.80
2023-01-12T07:03:31.668Z,8.45
2023-01-12T07:05:59.446Z,9.32
2023-01-12T07:08:26.654Z,9.48
2023-01-12T07:10:53.294Z,9.32
2023-01-12T07:13:20.216Z,10.55
2023-01-12T07:15:46.835Z,9.18
2023-01-12T07:18:13.560Z,8.75
2023-01-12T07:20:40.129Z,8.25
2023-01-12T07:23:06.698Z,8.45
2023-01-12T07:25:33.453Z,7.80
2023-01-12T07:28:00.400Z,8.07
2023-01-12T07:30:27.691Z,7.97
2023-01-12T07:32:55.179Z,6.00
2023-01-12T07:35:22.105Z,7.10
2023-01-12T07:37:50.549Z,6.50
2023-01-12T07:40:18.104Z,7.22
2023-01-12T07:42:44.853Z,7.65
2023-01-12T07:45:11.944Z,6.20
2023-01-12T07:47:39.379Z,6.45
2023-01-12T07:50:06.956Z,6.38
2023-01-12T07:52:33.883Z,5.80
2023-01-12T07:55:00.562Z,5.43
2023-01-12T07:57:27.245Z,5.80
2023-01-12T07:59:53.858Z,6.55
2023-01-12T08:02:20.580Z,6.55
2023-01-12T08:04:47.511Z,6.25
2023-01-12T08:07:15.216Z,5.20
2023-01-12T08:09:42.055Z,5.00
2023-01-12T08:12:08.759Z,4.93
2023-01-12T08:14:38.271Z,4.90
2023-01-12T08:17:12.693Z,4.78
2023-01-12T08:19:45.061Z,3.53
2023-01-12T08:25:10.856Z,3.50
2023-01-12T08:27:43.484Z,2.97
2023-01-12T08:30:13.355Z,3.42
2023-01-12T08:32:40.106Z,3.20
2023-01-12T08:35:07.636Z,2.50
2023-01-12T08:37:35.319Z,3.03
2023-01-12T08:40:04.813Z,3.15
2023-01-12T08:42:31.878Z,2.78
2023-01-12T08:44:58.723Z,3.35
2023-01-12T08:47:27.723Z,3.28
2023-01-12T08:49:54.956Z,2.47
2023-01-12T08:52:21.839Z,2.42
2023-01-12T08:54:49.286Z,2.45
2023-01-12T08:57:19.914Z,3.13
2023-01-12T08:59:46.676Z,2.50
2023-01-12T09:02:14.743Z,2.63
2023-01-12T09:04:41.888Z,2.63
2023-01-12T09:07:09.904Z,2.60
2023-01-12T09:09:36.971Z,2.60
2023-01-12T09:12:04.370Z,2.70
2023-01-12T09:14:30.983Z,2.95
2023-01-12T09:16:57.657Z,2.83
2023-01-12T09:19:24.598Z,2.50
2023-01-12T09:21:51.244Z,2.33
2023-01-12T09:24:17.850Z,2.53
2023-01-12T09:26:46.359Z,2.78
2023-01-12T09:29:14.250Z,2.10
2023-01-12T09:31:43.718Z,2.38
2023-01-12T09:34:11.100Z,3.20
2023-01-12T09:36:39.657Z,2.83
2023-01-12T09:39:15.529Z,3.30
2023-01-12T09:42:08.981Z,3.65
2023-01-12T09:44:59.511Z,2.58
2023-01-12T09:47:53.770Z,2.70
2023-01-12T09:50:31.729Z,2.65
2023-01-12T09:53:07.441Z,3.10
2023-01-12T09:55:47.758Z,2.92
2023-01-12T09:58:45.295Z,3.05
2023-01-12T10:01:24.284Z,2.75
2023-01-12T10:03:56.389Z,3.35
2023-01-12T10:06:23.086Z,2.75
2023-01-12T10:08:52.211Z,3.38
2023-01-12T10:11:43.308Z,2.83
2023-01-12T10:14:28.268Z,3.25
2023-01-12T10:17:00.550Z,2.85
2023-01-12T10:22:38.410Z,4.03
2023-01-12T10:25:23.054Z,3.35
2023-01-12T10:27:52.802Z,2.80
2023-01-12T10:30:31.952Z,2.45
2023-01-12T10:33:16.873Z,2.33
2023-01-12T10:36:09.157Z,2.50
2023-01-12T10:38:52.527Z,2.42
2023-01-12T10:41:24.356Z,2.35
2023-01-12T10:43:56.705Z,2.25
2023-01-12T10:48:54.321Z,2.78
2023-01-12T10:51:30.861Z,2.13
2023-01-12T10:54:08.954Z,2.90
2023-01-12T10:56:52.869Z,2.10
2023-01-12T10:59:22.177Z,2.25
2023-01-12T11:02:14.567Z,2.13
2023-01-12T11:04:48.530Z,2.10
2023-01-12T11:07:25.760Z,2.00
2023-01-12T11:09:58.377Z,2.22
2023-01-12T11:12:35.607Z,2.03
2023-01-12T11:15:14.379Z,2.55
2023-01-12T11:17:52.368Z,2.40
2023-01-12T11:20:30.419Z,1.33
2023-01-12T11:23:03.036Z,2.13
2023-01-12T11:25:43.510Z,2.42
2023-01-12T11:28:34.852Z,1.90
2023-01-12T11:31:12.431Z,1.83
2023-01-12T11:33:42.627Z,2.17
2023-01-12T11:36:31.914Z,1.88
2023-01-12T11:39:02.158Z,2.70
2023-01-12T11:42:06.098Z,2.75
2023-01-12T11:44:36.743Z,1.75
2023-01-12T11:47:20.593Z,2.40
2023-01-12T11:49:52.882Z,2.28
2023-01-12T11:54:46.285Z,2.67
2023-01-12T11:57:15.593Z,2.17
2023-01-12T11:59:54.091Z,2.70
2023-01-12T12:02:33.195Z,3.25
2023-01-12T12:05:18.123Z,2.88
2023-01-12T12:08:05.873Z,3.20
2023-01-12T12:10:41.174Z,2.78
2023-01-12T12:13:19.856Z,3.03
2023-01-12T12:16:07.890Z,3.35
2023-01-12T12:18:37.620Z,2.88
2023-01-12T12:21:13.010Z,4.40
2023-01-12T12:23:45.334Z,3.60
2023-01-12T12:29:05.202Z,4.07
2023-01-12T12:31:53.396Z,4.38
2023-01-12T12:34:38.248Z,4.28
2023-01-12T12:37:32.363Z,3.13
2023-01-12T12:40:17.047Z,3.08
2023-01-12T12:43:22.626Z,3.88
2023-01-12T12:46:12.141Z,3.10
2023-01-12T12:48:59.308Z,3.38
2023-01-12T12:51:29.016Z,3.22
2023-01-12T12:53:56.268Z,2.92
2023-01-12T12:56:25.138Z,2.80
2023-01-12T12:58:57.390Z,2.90
2023-01-12T13:04:03.150Z,3.10
2023-01-12T13:06:40.210Z,3.20
2023-01-12T13:09:12.731Z,2.90
2023-01-12T13:11:45.231Z,3.40
2023-01-12T13:14:42.553Z,2.97
2023-01-12T13:17:21.219Z,3.85
2023-01-12T13:20:24.252Z,3.30
2023-01-12T13:22:51.686Z,3.75
2023-01-12T13:25:22.294Z,4.68
2023-01-12T13:28:00.785Z,4.50
2023-01-12T13:30:30.339Z,3.85
2023-01-12T13:33:01.223Z,4.10
2023-01-12T13:35:33.491Z,3.92
2023-01-12T13:40:31.797Z,3.70
2023-01-12T13:43:19.772Z,4.80
2023-01-12T13:45:54.688Z,4.70
2023-01-12T13:48:21.938Z,4.68
2023-01-12T13:50:53.788Z,4.75
2023-01-12T13:53:28.602Z,5.35
2023-01-12T13:56:03.291Z,4.05
2023-01-12T13:58:38.958Z,4.88
2023-01-12T14:01:08.177Z,5.18
2023-01-12T14:03:55.031Z,4.63
2023-01-12T14:06:29.243Z,5.13
2023-01-12T14:09:10.037Z,5.47
2023-01-12T14:11:55.137Z,5.43
2023-01-12T14:14:43.384Z,5.88
2023-01-12T14:17:36.267Z,5.88
2023-01-12T14:20:02.977Z,7.60
2023-01-12T14:22:29.904Z,6.90
2023-01-12T14:25:16.037Z,6.53
2023-01-12T14:27:50.595Z,7.47
2023-01-12T14:30:17.523Z,5.80
2023-01-12T14:32:46.327Z,6.85
2023-01-12T14:35:18.567Z,6.07
2023-01-12T14:40:28.265Z,7.03
2023-01-12T14:43:13.814Z,6.93
2023-01-12T14:46:14.031Z,6.57
2023-01-12T14:48:43.767Z,7.47
2023-01-12T14:51:18.084Z,7.18
2023-01-12T14:53:47.779Z,8.68
2023-01-12T14:56:17.180Z,8.98
2023-01-12T14:58:48.397Z,8.02
2023-01-12T15:01:33.765Z,7.63
2023-01-12T15:04:00.910Z,8.68
2023-01-12T15:06:27.912Z,8.27
2023-01-12T15:08:58.133Z,6.40
2023-01-12T15:11:38.375Z,7.93
2023-01-12T15:14:06.888Z,8.20
2023-01-12T15:16:52.072Z,7.53
2023-01-12T15:19:37.307Z,7.18
2023-01-12T15:22:27.634Z,9.13
2023-01-12T15:25:14.178Z,8.75
2023-01-12T15:27:40.816Z,8.35
2023-01-12T15:30:09.126Z,7.75
2023-01-12T15:32:48.281Z,8.63
2023-01-12T15:35:18.083Z,8.55
2023-01-12T15:37:45.187Z,8.05
2023-01-12T15:40:15.177Z,7.97
2023-01-12T15:42:42.326Z,7.63
2023-01-12T15:45:28.522Z,8.70
2023-01-12T15:47:55.638Z,8.57
2023-01-12T15:50:22.272Z,8.05
2023-01-12T15:52:49.177Z,8.32
2023-01-12T15:55:18.580Z,7.57
2023-01-12T15:57:45.270Z,9.02
2023-01-12T16:00:18.958Z,8.20
2023-01-12T16:02:47.934Z,8.25
2023-01-12T16:05:16.897Z,8.73
2023-01-12T16:07:43.759Z,9.43
2023-01-12T16:10:11.630Z,10.68
2023-01-12T16:12:38.462Z,10.27
2023-01-12T16:15:13.691Z,11.00
2023-01-12T16:17:40.317Z,11.52
2023-01-12T16:20:07.673Z,12.75
2023-01-12T16:22:34.354Z,10.75
2023-01-12T16:25:01.017Z,9.50
2023-01-12T16:27:28.094Z,9.45
2023-01-12T16:29:55.013Z,10.18
2023-01-12T16:32:26.682Z,11.18
2023-01-12T16:34:53.796Z,8.95
2023-01-12T16:37:23.276Z,10.80
2023-01-12T16:39:50.240Z,10.13
2023-01-12T16:42:17.159Z,10.40
2023-01-12T16:44:43.765Z,10.38
2023-01-12T16:47:13.943Z,9.30
2023-01-12T16:49:40.739Z,11.32
2023-01-12T16:52:09.432Z,10.30
2023-01-12T16:54:41.695Z,10.85
2023-01-12T16:59:35.613Z,10.70
2023-01-12T17:02:07.781Z,10.13
2023-01-12T17:04:36.011Z,9.77
2023-01-12T17:07:03.950Z,9.27
2023-01-12T17:09:31.321Z,10.20
2023-01-12T17:11:59.703Z,12.77
2023-01-12T17:14:27.869Z,12.90
2023-01-12T17:16:57.353Z,10.60
2023-01-12T17:19:26.256Z,10.77
2023-01-12T17:21:55.017Z,10.85
2023-01-12T17:24:22.450Z,9.50
2023-01-12T17:26:51.433Z,9.60
2023-01-12T17:29:18.544Z,8.73
2023-01-12T17:31:45.396Z,8.38
2023-01-12T17:34:13.350Z,8.82
2023-01-12T17:36:40.808Z,8.60
2023-01-12T17:39:08.378Z,7.78
2023-01-12T17:41:54.077Z,6.85
2023-01-12T17:44:21.263Z,7.63
2023-01-12T17:46:48.424Z,7.22
2023-01-12T17:49:15.557Z,7.55
2023-01-12T17:51:42.304Z,7.45
2023-01-12T17:54:12.216Z,6.95
2023-01-12T17:56:38.857Z,6.78
2023-01-12T17:59:05.901Z,8.38
2023-01-12T18:01:34.890Z,9.27
2023-01-12T18:04:02.020Z,6.32
2023-01-12T18:06:29.082Z,7.90
2023-01-12T18:08:56.955Z,7.30
2023-01-12T18:11:23.780Z,7.07
2023-01-12T18:13:50.426Z,7.72
2023-01-12T18:16:17.643Z,8.48
2023-01-12T18:18:45.055Z,8.00
2023-01-12T18:21:14.882Z,7.95
2023-01-12T18:23:43.668Z,9.13
2023-01-12T18:26:16.021Z,8.23
2023-01-12T18:31:13.306Z,9.38
2023-01-12T18:33:40.239Z,7.70
2023-01-12T18:36:22.332Z,8.23
2023-01-12T18:38:51.133Z,8.95
2023-01-12T18:41:38.013Z,8.73
2023-01-12T18:44:06.404Z,8.90
2023-01-12T18:46:53.325Z,7.25
2023-01-12T18:49:25.043Z,8.80
2023-01-12T18:52:10.827Z,9.07
2023-01-12T18:54:48.241Z,8.65
2023-01-12T18:57:19.627Z,11.40
2023-01-12T18:59:47.763Z,10.43
2023-01-12T19:02:16.696Z,9.38
2023-01-12T19:04:50.227Z,8.25
2023-01-12T19:07:51.098Z,9.02
2023-01-12T19:10:18.112Z,7.78
2023-01-12T19:12:46.203Z,7.88
2023-01-12T19:15:32.373Z,8.35
2023-01-12T19:17:59.251Z,8.27
2023-01-12T19:20:30.433Z,6.88
2023-01-12T19:23:17.707Z,7.47
2023-01-12T19:26:03.037Z,6.22
2023-01-12T19:28:32.900Z,6.38
2023-01-12T19:31:01.366Z,5.50
2023-01-12T19:33:28.665Z,6.20
2023-01-12T19:35:55.537Z,5.38
2023-01-12T19:38:22.808Z,6.25
2023-01-12T19:40:54.364Z,6.53
2023-01-12T19:43:26.321Z,6.38
2023-01-12T19:45:59.213Z,7.30
2023-01-12T19:48:27.011Z,7.32
2023-01-12T19:50:54.088Z,8.75
2023-01-12T19:53:28.290Z,7.93
2023-01-12T19:55:55.178Z,6.70
2023-01-12T19:58:22.413Z,7.10
2023-01-12T20:00:50.159Z,6.10
2023-01-12T20:03:19.200Z,7.38
2023-01-12T20:05:53.538Z,6.53
2023-01-12T20:08:23.280Z,6.85
2023-01-12T20:10:58.081Z,6.53
2023-01-12T20:13:25.722Z,6.93
2023-01-12T20:15:53.349Z,6.40
2023-01-12T20:18:20.231Z,6.72
2023-01-12T20:20:48.713Z,7.15
2023-01-12T20:23:16.058Z,6.15
2023-01-12T20:25:43.902Z,6.80
2023-01-12T20:28:13.358Z,6.78
2023-01-12T20:30:41.882Z,6.25
2023-01-12T20:33:09.403Z,7.30
2023-01-12T20:35:38.539Z,7.38
2023-01-12T20:38:15.779Z,7.65
2023-01-12T20:40:45.131Z,6.40
2023-01-12T20:43:12.441Z,6.63
2023-01-12T20:45:42.051Z,6.40
2023-01-12T20:48:10.788Z,5.32
2023-01-12T20:50:46.317Z,5.22
2023-01-12T20:53:15.321Z,6.03
2023-01-12T20:55:48.185Z,6.55
2023-01-12T20:58:15.109Z,5.80
2023-01-12T21:00:42.366Z,5.65
2023-01-12T21:03:09.149Z,6.00
2023-01-12T21:05:35.929Z,5.38
2023-01-12T21:08:08.409Z,6.20
2023-01-12T21:10:36.382Z,5.55
2023-01-12T21:13:03.551Z,5.68
2023-01-12T21:15:30.428Z,6.57
2023-01-12T21:17:57.529Z,6.20
2023-01-12T21:20:24.310Z,5.30
2023-01-12T21:22:51.047Z,5.95
2023-01-12T21:25:18.419Z,5.82
2023-01-12T21:27:45.133Z,5.78
2023-01-12T21:30:12.710Z,5.65
2023-01-12T21:32:43.560Z,5.55
2023-01-12T21:35:10.183Z,5.32
2023-01-12T21:37:36.954Z,5.63
2023-01-12T21:40:04.447Z,5.25
2023-01-12T21:42:50.318Z,5.55
2023-01-12T21:45:17.210Z,5.72
2023-01-12T21:47:46.355Z,5.90
2023-01-12T21:50:13.147Z,5.72
2023-01-12T21:52:41.508Z,6.10
2023-01-12T21:55:11.345Z,5.72
2023-01-12T21:57:38.004Z,5.40
2023-01-12T22:00:05.215Z,5.10
2023-01-12T22:02:34.030Z,6.18
2023-01-12T22:05:00.654Z,5.63
2023-01-12T22:07:28.049Z,6.43
2023-01-12T22:09:55.132Z,5.22
2023-01-12T22:12:21.714Z,5.97
2023-01-12T22:14:48.288Z,5.57
2023-01-12T22:17:15.085Z,6.63
2023-01-12T22:19:41.681Z,6.50
2023-01-12T22:22:08.266Z,6.35
2023-01-12T22:24:34.866Z,7.07
2023-01-12T22:27:02.494Z,8.15
2023-01-12T22:29:29.581Z,6.95
2023-01-12T22:31:56.220Z,7.72
2023-01-12T22:34:25.035Z,7.72
2023-01-12T22:36:51.799Z,8.02
2023-01-12T22:39:18.370Z,8.32
2023-01-12T22:41:44.977Z,9.07
2023-01-12T22:44:11.615Z,7.70
2023-01-12T22:46:38.572Z,7.32
2023-01-12T22:49:05.178Z,8.02
2023-01-12T22:51:31.785Z,8.82
2023-01-12T22:53:58.818Z,8.88
2023-01-12T22:56:25.646Z,7.63
2023-01-12T22:58:55.206Z,7.85
2023-01-12T23:01:23.386Z,8.02
2023-01-12T23:03:54.273Z,8.80
2023-01-12T23:06:22.490Z,8.48
2023-01-12T23:08:50.132Z,8.50
2023-01-12T23:11:22.950Z,9.35
2023-01-12T23:13:50.096Z,9.32
2023-01-12T23:16:17.790Z,8.48
2023-01-12T23:18:46.206Z,8.65
2023-01-12T23:21:24.911Z,8.30
2023-01-12T23:23:57.139Z,8.43
2023-01-12T23:28:57.264Z,7.82
2023-01-12T23:31:26.705Z,7.65
2023-01-12T23:33:53.520Z,7.72
2023-01-12T23:36:23.007Z,7.95
2023-01-12T23:38:58.049Z,7.22
2023-01-12T23:41:27.696Z,8.20
2023-01-12T23:43:57.639Z,7.50
2023-01-12T23:46:24.632Z,8.27
2023-01-12T23:48:52.988Z,7.97
2023-01-12T23:51:20.328Z,7.65
2023-01-12T23:53:47.319Z,8.77
2023-01-12T23:56:16.493Z,7.28
2023-01-12T23:58:43.783Z,8.88
